Time;durP1;ratioP1;P1;durP2;ratioP2;P2;SDS_P1;SDS_P2;PMS_P1;PMS_P2;Temp;Humidity;BMP_temperature;BMP_pressure;BME280_temperature;BME280_humidity;BME280_pressure;Samples;Min_cycle;Max_cycle;Signal;HPM_P1;HPM_P2
2024/01/26 00:00:34;;;;;;;4.32;1.15;;;;;;;10.04;37.92;98959.28;4982023;28;20105;-82
2024/01/26 00:03:00;;;;;;;8.38;1.50;;;;;;;10.04;37.80;98943.66;4981921;28;20065;-82
2024/01/26 00:05:25;;;;;;;5.97;1.40;;;;;;;10.03;37.67;98935.00;4965582;28;20413;-82
2024/01/26 00:07:51;;;;;;;6.95;1.60;;;;;;;10.03;37.94;98937.59;4982084;28;20046;-81
2024/01/26 00:10:16;;;;;;;5.57;1.40;;;;;;;10.02;37.70;98932.50;4981416;28;20038;-80
2024/01/26 00:12:42;;;;;;;6.05;1.20;;;;;;;10.00;37.75;98929.19;4966122;28;20030;-81
2024/01/26 00:15:08;;;;;;;4.72;1.10;;;;;;;9.99;37.64;98914.47;4998113;28;20038;-81
2024/01/26 00:17:33;;;;;;;5.10;1.05;;;;;;;10.01;37.61;98923.00;4981090;28;20033;-81
2024/01/26 00:19:59;;;;;;;5.15;1.27;;;;;;;10.02;37.38;98922.06;4965238;28;20451;-81
2024/01/26 00:22:24;;;;;;;4.32;1.17;;;;;;;10.01;37.37;98908.22;4965332;28;20480;-81
2024/01/26 00:24:50;;;;;;;4.70;1.20;;;;;;;9.99;37.58;98906.63;4965357;28;20100;-80
2024/01/26 00:27:16;;;;;;;9.32;1.38;;;;;;;9.98;37.40;98897.13;4965487;28;20049;-79
2024/01/26 00:29:41;;;;;;;3.65;1.42;;;;;;;9.98;37.40;98907.56;4982195;28;20445;-79
2024/01/26 00:32:07;;;;;;;6.07;1.20;;;;;;;9.98;37.00;98903.22;4965162;28;20543;-81
2024/01/26 00:34:32;;;;;;;5.95;1.50;;;;;;;9.94;36.89;98904.34;4981465;28;20042;-81
2024/01/26 00:36:59;;;;;;;5.70;1.23;;;;;;;9.98;37.15;98918.84;4965375;28;20490;-81
2024/01/26 00:39:25;;;;;;;6.03;1.60;;;;;;;9.92;37.05;98899.25;4965403;28;20041;-81
2024/01/26 00:41:51;;;;;;;5.28;1.30;;;;;;;9.93;36.81;98900.91;4964879;28;20042;-80
2024/01/26 00:44:16;;;;;;;6.00;1.63;;;;;;;9.93;37.18;98908.75;4964896;28;20556;-80
2024/01/26 00:46:42;;;;;;;6.57;1.15;;;;;;;9.92;37.01;98922.72;4981245;28;20045;-80
2024/01/26 00:49:08;;;;;;;6.13;1.63;;;;;;;9.93;37.05;98926.16;4996973;28;20042;-80
2024/01/26 00:51:34;;;;;;;4.75;1.30;;;;;;;9.94;36.88;98933.03;4981433;28;20096;-80
2024/01/26 00:53:59;;;;;;;5.78;1.10;;;;;;;9.87;37.26;98924.81;4980570;28;20065;-79
2024/01/26 00:56:25;;;;;;;5.95;1.40;;;;;;;9.90;36.90;98932.44;4981155;28;20141;-79
2024/01/26 00:58:50;;;;;;;5.30;1.13;;;;;;;9.89;36.91;98930.75;4981219;28;20029;-80
2024/01/26 01:01:16;;;;;;;8.98;1.95;;;;;;;9.91;37.04;98928.84;5015203;28;20156;-80
2024/01/26 01:03:41;;;;;;;5.05;1.10;;;;;;;9.93;36.91;98936.56;4981616;28;20038;-80
2024/01/26 01:06:07;;;;;;;5.63;1.50;;;;;;;9.90;36.77;98927.22;4981765;28;20077;-79
2024/01/26 01:08:33;;;;;;;5.43;1.23;;;;;;;9.96;36.82;98937.22;4980862;28;20034;-80
2024/01/26 01:10:58;;;;;;;7.03;1.80;;;;;;;9.97;36.94;98935.44;4981294;28;20103;-80
2024/01/26 01:13:25;;;;;;;4.70;1.30;;;;;;;9.98;37.01;98944.94;4981267;28;20042;-81
2024/01/26 01:15:51;;;;;;;6.50;1.38;;;;;;;9.92;36.93;98938.34;4964970;28;20088;-80
2024/01/26 01:18:17;;;;;;;8.27;1.50;;;;;;;9.98;36.90;98942.31;4980433;28;20037;-80
2024/01/26 01:20:43;;;;;;;5.13;1.15;;;;;;;9.89;37.07;98938.56;4996830;28;20393;-76
2024/01/26 01:23:08;;;;;;;3.60;1.10;;;;;;;9.94;37.06;98936.47;4996591;28;20041;-82
2024/01/26 01:25:34;;;;;;;4.72;1.35;;;;;;;9.92;37.07;98935.75;4965254;28;20141;-79
2024/01/26 01:27:59;;;;;;;6.80;1.65;;;;;;;9.89;36.98;98932.53;4964885;28;20498;-82
2024/01/26 01:30:25;;;;;;;5.47;1.40;;;;;;;9.91;36.70;98939.28;4981817;28;20127;-81
2024/01/26 01:32:50;;;;;;;8.20;1.30;;;;;;;9.87;37.05;98934.44;4965971;28;20057;-83
2024/01/26 01:35:16;;;;;;;6.45;1.45;;;;;;;9.87;36.86;98945.69;4990713;28;20485;-80
2024/01/26 01:37:42;;;;;;;4.35;1.50;;;;;;;9.84;37.03;98932.84;4983739;28;20124;-81
2024/01/26 01:40:08;;;;;;;6.30;2.03;;;;;;;9.85;36.93;98939.75;4998441;28;20038;-82
2024/01/26 01:42:33;;;;;;;6.55;1.33;;;;;;;9.84;36.89;98939.84;4982726;28;20045;-81
2024/01/26 01:44:59;;;;;;;6.55;1.33;;;;;;;9.82;37.13;98946.94;4995964;28;20041;-80
2024/01/26 01:47:27;;;;;;;4.20;1.10;;;;;;;9.77;37.08;98942.03;4982320;28;20394;-81
2024/01/26 01:49:52;;;;;;;6.75;1.30;;;;;;;9.79;37.15;98953.22;4996569;28;20053;-81
2024/01/26 01:52:18;;;;;;;5.05;1.60;;;;;;;9.76;37.18;98941.22;4964095;28;20054;-82
2024/01/26 01:54:43;;;;;;;5.28;1.38;;;;;;;9.70;37.02;98926.00;4960800;28;20478;-82
2024/01/26 01:57:12;;;;;;;4.38;1.35;;;;;;;9.68;37.07;98930.50;4961273;28;20046;-81
2024/01/26 01:59:38;;;;;;;5.97;1.67;;;;;;;9.74;37.13;98940.50;4960883;28;20092;-80
2024/01/26 02:02:04;;;;;;;10.02;1.73;;;;;;;9.71;37.15;98940.69;4975902;28;20042;-81
2024/01/26 02:04:30;;;;;;;8.48;2.83;;;;;;;9.72;37.46;98946.75;4961279;28;20034;-81
2024/01/26 02:06:56;;;;;;;3.97;1.00;;;;;;;9.68;37.16;98947.91;4944621;28;20049;-82
2024/01/26 02:09:21;;;;;;;5.30;1.05;;;;;;;9.61;37.19;98942.25;4960118;28;20031;-81
2024/01/26 02:11:47;;;;;;;3.83;1.17;;;;;;;9.64;37.21;98947.28;4960946;28;20061;-81
2024/01/26 02:14:13;;;;;;;6.90;1.30;;;;;;;9.62;37.26;98943.13;4961144;28;20124;-81
2024/01/26 02:16:38;;;;;;;3.83;1.10;;;;;;;9.57;37.23;98944.25;4977023;28;20069;-82
2024/01/26 02:19:04;;;;;;;4.72;1.50;;;;;;;9.59;37.47;98957.19;4961037;28;20073;-82
2024/01/26 02:21:29;;;;;;;5.22;1.33;;;;;;;9.58;37.36;98952.91;4976419;28;20038;-81
2024/01/26 02:23:55;;;;;;;3.10;1.08;;;;;;;9.57;37.44;98948.66;4944065;28;20046;-82
2024/01/26 02:26:20;;;;;;;4.18;1.05;;;;;;;9.56;37.55;98945.19;4944730;28;20413;-81
2024/01/26 02:28:46;;;;;;;3.15;1.13;;;;;;;9.55;37.42;98943.53;4944427;28;20401;-81
2024/01/26 02:31:11;;;;;;;4.05;1.13;;;;;;;9.54;37.39;98943.66;4960562;28;20110;-81
2024/01/26 02:33:37;;;;;;;4.65;1.30;;;;;;;9.54;37.21;98931.44;4960288;28;20042;-82
2024/01/26 02:36:03;;;;;;;3.88;1.10;;;;;;;9.54;37.17;98922.78;4959730;28;20084;-82
2024/01/26 02:38:30;;;;;;;4.57;1.02;;;;;;;9.52;37.44;98916.84;4944268;28;20038;-82
2024/01/26 02:40:55;;;;;;;5.35;1.10;;;;;;;9.50;37.17;98921.31;4944250;28;20561;-82
2024/01/26 02:43:22;;;;;;;4.97;1.40;;;;;;;9.50;37.35;98919.53;4944486;28;20042;-83
2024/01/26 02:45:47;;;;;;;4.45;1.17;;;;;;;9.47;37.22;98911.97;4944988;28;20038;-80
2024/01/26 02:48:14;;;;;;;5.68;1.35;;;;;;;9.45;37.20;98913.00;4960662;28;20508;-81
2024/01/26 02:50:39;;;;;;;5.72;1.02;;;;;;;9.41;37.38;98904.56;4963278;28;20393;-82
2024/01/26 02:53:05;;;;;;;6.25;1.20;;;;;;;9.43;37.21;98917.50;4980007;28;20046;-81
2024/01/26 02:55:31;;;;;;;5.30;1.00;;;;;;;9.42;37.33;98914.03;4964063;28;20045;-81
2024/01/26 02:57:56;;;;;;;3.75;0.90;;;;;;;9.40;37.20;98916.75;4979549;28;20030;-81
2024/01/26 03:00:22;;;;;;;7.28;1.10;;;;;;;9.39;37.64;98915.09;4979568;28;20096;-81
2024/01/26 03:02:48;;;;;;;4.22;0.90;;;;;;;9.38;37.54;98915.19;4964055;28;20041;-82
2024/01/26 03:05:13;;;;;;;4.47;1.17;;;;;;;9.39;37.60;98929.88;4979546;28;20476;-81
2024/01/26 03:07:40;;;;;;;2.83;0.77;;;;;;;9.34;37.26;98924.16;4979367;28;20033;-82
2024/01/26 03:10:07;;;;;;;4.28;1.17;;;;;;;9.38;37.25;98944.69;4963245;28;20053;-80
2024/01/26 03:12:36;;;;;;;4.22;0.90;;;;;;;9.38;37.40;98944.69;4996894;28;20037;-80
2024/01/26 03:15:01;;;;;;;5.93;1.40;;;;;;;9.39;37.59;98940.28;4967652;28;20053;-81
2024/01/26 03:17:27;;;;;;;7.38;1.10;;;;;;;9.38;37.30;98934.25;4982961;28;20038;-82
2024/01/26 03:19:52;;;;;;;6.93;1.05;;;;;;;9.42;37.33;98937.47;4966719;28;20029;-82
2024/01/26 03:22:18;;;;;;;5.75;1.30;;;;;;;9.40;37.31;98934.16;4983485;28;20045;-81
2024/01/26 03:24:44;;;;;;;6.88;1.20;;;;;;;9.45;37.28;98944.28;4966751;28;20430;-83
2024/01/26 03:27:10;;;;;;;3.22;1.00;;;;;;;9.47;37.53;98947.59;4982951;28;20038;-82
2024/01/26 03:29:35;;;;;;;6.18;1.10;;;;;;;9.46;37.64;98941.56;4966557;28;20519;-81
2024/01/26 03:32:01;;;;;;;3.45;0.95;;;;;;;9.49;37.46;98945.72;4966752;28;20524;-81
2024/01/26 03:34:26;;;;;;;6.30;1.00;;;;;;;9.51;37.22;98947.28;4970196;28;20057;-81
2024/01/26 03:36:52;;;;;;;2.13;0.77;;;;;;;9.52;37.69;98940.28;4994131;28;20045;-82
2024/01/26 03:39:18;;;;;;;4.07;1.00;;;;;;;9.52;37.13;98942.91;4999839;28;20045;-81
2024/01/26 03:41:44;;;;;;;3.88;1.10;;;;;;;9.53;37.37;98936.75;4966984;28;20126;-81
2024/01/26 03:44:11;;;;;;;4.18;1.35;;;;;;;9.50;37.34;98942.19;4990301;28;20092;-81
2024/01/26 03:46:41;;;;;;;3.70;0.90;;;;;;;9.54;37.39;98936.66;4978973;28;20408;-83
2024/01/26 03:49:09;;;;;;;5.15;1.27;;;;;;;9.51;37.11;98929.03;4966665;28;20045;-81
2024/01/26 03:51:37;;;;;;;2.97;1.00;;;;;;;9.57;37.32;98944.25;4983267;28;20045;-80
2024/01/26 03:54:03;;;;;;;3.90;0.98;;;;;;;9.56;36.99;98934.75;4982543;28;20129;-82
2024/01/26 03:56:28;;;;;;;4.88;1.42;;;;;;;9.57;36.98;98940.81;4981615;28;20046;-82
2024/01/26 03:58:54;;;;;;;7.03;1.30;;;;;;;9.58;36.90;98945.94;4965867;28;20140;-80
2024/01/26 04:01:20;;;;;;;4.63;1.15;;;;;;;9.54;37.06;98939.25;4982267;28;20045;-82
2024/01/26 04:03:46;;;;;;;7.82;1.50;;;;;;;9.55;37.00;98937.47;4966050;28;20052;-81
2024/01/26 04:06:12;;;;;;;3.88;1.33;;;;;;;9.60;37.33;98956.25;4981670;28;20050;-82
2024/01/26 04:08:37;;;;;;;5.15;1.15;;;;;;;9.59;37.29;98952.78;4982242;28;20061;-82
2024/01/26 04:11:03;;;;;;;2.17;1.00;;;;;;;9.61;37.16;98960.50;4982016;28;20034;-82
2024/01/26 04:13:28;;;;;;;4.65;1.40;;;;;;;9.56;37.25;98945.19;4981385;28;20508;-80
2024/01/26 04:15:54;;;;;;;3.17;0.98;;;;;;;9.61;36.97;98960.50;4965207;28;20508;-82
2024/01/26 04:18:19;;;;;;;6.65;1.30;;;;;;;9.62;37.28;98962.19;4964733;28;20045;-83
2024/01/26 04:20:47;;;;;;;5.03;1.00;;;;;;;9.58;37.13;98945.94;4965167;28;20038;-83
2024/01/26 04:23:13;;;;;;;4.63;1.40;;;;;;;9.59;37.18;98965.00;4981195;28;20129;-84
2024/01/26 04:25:39;;;;;;;3.05;0.98;;;;;;;9.64;37.13;98969.91;4964921;28;20125;-82
2024/01/26 04:28:04;;;;;;;5.03;1.27;;;;;;;9.66;37.19;98981.03;4981400;28;20120;-82
2024/01/26 04:30:30;;;;;;;2.72;0.98;;;;;;;9.65;37.10;98964.59;4967275;28;20038;-82
2024/01/26 04:32:56;;;;;;;3.22;1.15;;;;;;;9.61;37.21;98970.94;5014668;28;20508;-80
2024/01/26 04:35:22;;;;;;;5.00;0.95;;;;;;;9.61;37.00;98970.94;4997200;28;20042;-81
2024/01/26 04:37:48;;;;;;;4.80;0.95;;;;;;;9.58;37.18;98971.16;4964793;28;20471;-85
2024/01/26 04:40:14;;;;;;;3.33;1.02;;;;;;;9.48;36.91;98963.13;4964779;28;20045;-84
2024/01/26 04:42:40;;;;;;;5.28;1.52;;;;;;;9.57;37.12;98967.72;4964788;28;20044;-84
2024/01/26 04:45:07;;;;;;;5.10;1.52;;;;;;;9.64;37.15;98960.31;4981164;28;20511;-85
2024/01/26 04:47:32;;;;;;;3.95;1.30;;;;;;;9.59;36.91;98952.78;4964946;28;20069;-84
2024/01/26 04:49:58;;;;;;;6.53;1.30;;;;;;;9.67;41.19;98977.50;4983947;28;20042;-88
2024/01/26 04:52:23;;;;;;;3.45;1.00;;;;;;;9.77;44.66;98973.31;5014421;28;20167;-74
2024/01/26 04:54:51;;;;;;;3.53;1.48;;;;;;;9.71;41.59;98978.94;4964422;28;20077;-82
2024/01/26 04:57:16;;;;;;;5.70;1.58;;;;;;;9.56;40.99;98957.41;4997515;28;20034;-84
2024/01/26 04:59:42;;;;;;;8.15;1.77;;;;;;;9.70;40.55;98988.56;4964033;28;20057;-77
2024/01/26 05:02:07;;;;;;;6.05;1.95;;;;;;;9.65;40.19;98982.84;5013927;28;20125;-81
2024/01/26 05:04:33;;;;;;;8.48;1.92;;;;;;;9.76;45.64;98989.91;4982736;28;20077;-76
2024/01/26 05:06:58;;;;;;;4.72;1.58;;;;;;;9.91;43.81;98990.63;4984962;28;20069;-77
2024/01/26 05:09:24;;;;;;;5.93;1.40;;;;;;;9.93;44.60;98979.16;4963478;28;20034;-78
2024/01/26 05:11:49;;;;;;;7.20;1.40;;;;;;;10.21;54.98;98976.38;4965329;28;20440;-89
2024/01/26 05:14:15;;;;;;;8.30;1.40;;;;;;;10.14;49.46;98949.88;4963800;28;20192;-78
2024/01/26 05:16:40;;;;;;;4.00;1.35;;;;;;;10.10;46.44;98962.31;4963931;28;20053;-80
2024/01/26 05:19:06;;;;;;;3.08;1.13;;;;;;;9.99;44.37;98971.84;4980529;28;20034;-78
2024/01/26 05:21:31;;;;;;;6.78;1.40;;;;;;;9.91;43.37;98970.59;4964047;28;20477;-78
2024/01/26 05:23:57;;;;;;;4.78;1.10;;;;;;;9.86;42.53;98987.50;4980365;28;20045;-77
2024/01/26 05:26:22;;;;;;;6.35;1.50;;;;;;;9.83;42.31;98993.75;4964015;28;20080;-78
2024/01/26 05:28:48;;;;;;;3.25;1.05;;;;;;;9.82;41.50;98997.31;4994105;28;20052;-79
2024/01/26 05:31:13;;;;;;;3.45;1.00;;;;;;;9.77;41.33;98989.81;4961783;28;20525;-78
2024/01/26 05:33:39;;;;;;;6.68;1.35;;;;;;;9.77;41.04;98992.41;4978891;28;20117;-78
2024/01/26 05:36:04;;;;;;;3.47;1.02;;;;;;;9.64;39.71;98991.56;4961092;28;20088;-78
2024/01/26 05:38:30;;;;;;;5.88;1.40;;;;;;;9.67;40.15;99000.97;4962743;28;20038;-78
2024/01/26 05:40:56;;;;;;;9.48;1.45;;;;;;;10.03;60.74;99007.22;4962603;28;20444;-78
2024/01/26 05:43:21;;;;;;;3.75;1.30;;;;;;;10.17;53.76;99012.28;4962764;28;20048;-78
2024/01/26 05:45:47;;;;;;;6.97;1.63;;;;;;;10.15;50.68;98998.50;4964171;28;20482;-75
2024/01/26 05:48:12;;;;;;;4.75;1.60;;;;;;;10.13;48.79;99003.00;4963836;28;20069;-78
2024/01/26 05:50:38;;;;;;;3.53;1.58;;;;;;;10.11;46.84;99021.34;4979196;28;20354;-78
2024/01/26 05:53:04;;;;;;;6.00;2.20;;;;;;;10.10;45.94;99016.25;4963412;28;20073;-77
2024/01/26 05:55:29;;;;;;;5.97;1.50;;;;;;;10.04;44.67;99016.69;4979433;28;20053;-80
2024/01/26 05:57:56;;;;;;;4.00;1.35;;;;;;;10.03;43.63;99030.69;5012910;28;20042;-78
2024/01/26 06:00:21;;;;;;;6.15;1.85;;;;;;;10.04;42.99;99041.00;4963751;28;20424;-78
2024/01/26 06:02:47;;;;;;;5.07;1.80;;;;;;;10.00;42.02;99038.72;4979232;28;20125;-77
2024/01/26 06:05:12;;;;;;;4.68;1.33;;;;;;;10.02;41.35;99035.03;4962352;28;20049;-78
2024/01/26 06:07:38;;;;;;;8.40;1.88;;;;;;;10.02;40.62;99047.25;4979369;28;20038;-79
2024/01/26 06:10:05;;;;;;;8.27;2.15;;;;;;;10.04;40.04;99040.16;4963440;28;20042;-78
2024/01/26 06:12:31;;;;;;;8.90;2.05;;;;;;;9.92;39.47;99040.06;4979796;28;20496;-78
2024/01/26 06:14:57;;;;;;;5.43;1.95;;;;;;;10.00;39.05;99055.19;4979746;28;20038;-77
2024/01/26 06:17:22;;;;;;;8.27;2.30;;;;;;;9.94;38.53;99045.16;4979255;28;20100;-77
2024/01/26 06:19:48;;;;;;;6.53;2.10;;;;;;;9.92;38.24;99049.66;4962241;28;20069;-78
2024/01/26 06:22:13;;;;;;;8.15;2.33;;;;;;;10.01;38.29;99062.06;4979236;28;20042;-78
2024/01/26 06:24:39;;;;;;;6.90;2.20;;;;;;;10.03;38.24;99054.97;4979221;28;20391;-78
2024/01/26 06:27:04;;;;;;;6.18;2.30;;;;;;;9.99;37.81;99050.06;4962854;28;20096;-78
2024/01/26 06:29:30;;;;;;;5.70;2.13;;;;;;;10.12;38.08;99056.94;4978695;28;20038;-79
2024/01/26 06:31:59;;;;;;;6.63;2.10;;;;;;;10.20;37.76;99069.47;4978520;28;20548;-78
2024/01/26 06:34:25;;;;;;;5.75;1.85;;;;;;;10.28;37.99;99055.88;4995542;28;20042;-79
2024/01/26 06:36:51;;;;;;;6.22;1.90;;;;;;;10.53;37.60;99056.78;4963322;28;20227;-78
2024/01/26 06:39:16;;;;;;;6.15;2.00;;;;;;;12.16;35.24;99051.72;4978647;28;20133;-79
2024/01/26 06:41:42;;;;;;;5.80;2.13;;;;;;;13.54;33.56;99038.00;4962751;28;20057;-78
2024/01/26 06:44:08;;;;;;;9.35;2.45;;;;;;;15.00;31.60;99021.06;4979446;28;20045;-81
2024/01/26 06:46:33;;;;;;;8.27;2.38;;;;;;;16.46;29.46;99036.50;4962647;28;20045;-80
2024/01/26 06:49:01;;;;;;;8.90;2.58;;;;;;;17.85;27.54;99028.13;4977882;28;20185;-79
2024/01/26 06:51:27;;;;;;;9.75;2.58;;;;;;;19.16;25.54;99032.19;4979642;28;20061;-78
2024/01/26 06:53:52;;;;;;;7.10;2.90;;;;;;;20.42;24.12;99028.13;4962527;28;20034;-77
2024/01/26 06:56:18;;;;;;;7.32;2.63;;;;;;;21.54;22.66;99025.06;4961268;28;20042;-77
2024/01/26 06:58:45;;;;;;;5.63;2.55;;;;;;;22.63;21.35;99024.47;4978971;28;20489;-78
2024/01/26 07:01:11;;;;;;;8.00;2.88;;;;;;;23.89;19.65;99026.56;4963026;28;20069;-77
2024/01/26 07:03:36;;;;;;;5.70;2.50;;;;;;;25.06;18.14;99023.91;4962523;28;20073;-77
2024/01/26 07:06:02;;;;;;;8.27;3.00;;;;;;;25.41;17.85;99027.25;4994937;28;20104;-79
2024/01/26 07:08:27;;;;;;;6.53;3.05;;;;;;;23.34;18.82;99029.06;4978541;28;20409;-81
2024/01/26 07:10:53;;;;;;;7.78;3.28;;;;;;;22.11;20.08;99034.25;4978260;28;20409;-77
2024/01/26 07:13:19;;;;;;;8.85;3.42;;;;;;;21.04;21.09;99031.75;4978264;28;20049;-77
2024/01/26 07:15:44;;;;;;;7.97;3.00;;;;;;;20.36;21.54;99034.94;4994442;28;20049;-78
2024/01/26 07:18:10;;;;;;;7.95;2.90;;;;;;;19.62;22.23;99029.81;4962456;28;20038;-78
2024/01/26 07:20:35;;;;;;;6.22;2.60;;;;;;;19.00;22.92;99045.41;4994738;28;20036;-78
2024/01/26 07:23:01;;;;;;;6.70;2.88;;;;;;;18.47;23.95;99050.88;4962644;28;20034;-79
2024/01/26 07:25:26;;;;;;;8.07;3.00;;;;;;;17.95;24.59;99030.69;4978140;28;20046;-80
2024/01/26 07:27:52;;;;;;;7.88;3.10;;;;;;;17.58;24.99;99052.03;4962429;28;20041;-79
2024/01/26 07:30:18;;;;;;;6.80;2.70;;;;;;;17.30;25.24;99054.78;4962508;28;20045;-80
2024/01/26 07:32:44;;;;;;;6.20;2.75;;;;;;;16.92;25.95;99048.84;4962903;28;20497;-79
2024/01/26 07:35:09;;;;;;;7.82;3.05;;;;;;;16.73;26.13;99042.72;4978799;28;20045;-80
2024/01/26 07:37:35;;;;;;;8.90;3.05;;;;;;;16.55;26.43;99047.94;4962649;28;20528;-79
2024/01/26 07:40:04;;;;;;;7.57;2.60;;;;;;;16.79;26.26;99043.91;4962122;28;20045;-78
2024/01/26 07:42:29;;;;;;;6.75;2.65;;;;;;;16.68;26.53;99057.31;4979805;28;20034;-79
2024/01/26 07:44:55;;;;;;;5.78;2.60;;;;;;;16.43;26.71;99057.00;4962883;28;20038;-80
2024/01/26 07:47:21;;;;;;;5.95;2.15;;;;;;;16.32;26.86;99054.59;4962795;28;20029;-79
2024/01/26 07:49:48;;;;;;;4.78;2.05;;;;;;;17.35;26.31;99047.25;4962027;28;20469;-81
2024/01/26 07:52:14;;;;;;;6.20;2.00;;;;;;;17.51;26.00;99039.44;4978038;28;20525;-81
2024/01/26 07:54:39;;;;;;;6.85;1.92;;;;;;;17.98;25.42;99038.28;4962275;28;20053;-77
2024/01/26 07:57:05;;;;;;;6.50;1.85;;;;;;;17.75;25.47;99043.22;4962673;28;20038;-78
2024/01/26 07:59:31;;;;;;;6.43;1.92;;;;;;;18.46;24.62;99043.13;4964172;28;20061;-77
2024/01/26 08:01:56;;;;;;;4.55;1.50;;;;;;;19.16;24.10;99034.81;4998206;28;20034;-79
2024/01/26 08:04:22;;;;;;;5.97;1.67;;;;;;;19.71;23.65;99044.72;4966576;28;20104;-79
2024/01/26 08:06:47;;;;;;;3.90;1.60;;;;;;;20.44;22.84;99039.38;4997506;28;20108;-75
2024/01/26 08:09:13;;;;;;;9.43;1.70;;;;;;;20.66;22.57;99036.97;4981026;28;20042;-75
2024/01/26 08:11:38;;;;;;;6.75;1.70;;;;;;;20.60;22.09;99031.34;4981153;28;20042;-74
2024/01/26 08:14:04;;;;;;;6.60;1.38;;;;;;;20.29;21.84;99022.53;4981495;28;20041;-74
2024/01/26 08:16:29;;;;;;;5.45;1.25;;;;;;;20.32;21.72;99023.03;4981164;28;20417;-73
2024/01/26 08:18:55;;;;;;;5.38;1.40;;;;;;;20.94;21.02;99035.47;4981562;28;20042;-72
2024/01/26 08:21:20;;;;;;;5.55;1.50;;;;;;;21.53;19.75;99038.50;4997429;28;20041;-74
2024/01/26 08:23:46;;;;;;;5.00;1.60;;;;;;;21.88;19.80;99018.38;4965179;28;20077;-74
2024/01/26 08:26:13;;;;;;;6.03;1.52;;;;;;;21.77;19.34;99021.50;4981709;28;20034;-75
2024/01/26 08:28:38;;;;;;;6.50;1.60;;;;;;;22.04;19.13;99026.19;4981857;28;20473;-73
2024/01/26 08:31:05;;;;;;;5.30;1.40;;;;;;;21.35;19.70;99018.41;4980991;28;20048;-74
2024/01/26 08:33:30;;;;;;;5.18;1.50;;;;;;;20.82;20.11;99028.91;4965528;28;20049;-77
2024/01/26 08:35:56;;;;;;;4.00;1.50;;;;;;;20.42;20.15;99044.84;4964987;28;20050;-74
2024/01/26 08:38:21;;;;;;;3.17;1.30;;;;;;;20.01;20.82;99034.41;4964853;28;20038;-74
2024/01/26 08:40:47;;;;;;;5.50;1.45;;;;;;;19.73;21.04;99036.59;4980448;28;20104;-73
2024/01/26 08:43:12;;;;;;;6.15;1.52;;;;;;;19.60;21.33;99050.34;4980696;28;20034;-74
2024/01/26 08:45:38;;;;;;;6.13;1.50;;;;;;;19.33;21.77;99060.31;4980771;28;20125;-72
2024/01/26 08:48:04;;;;;;;5.10;1.63;;;;;;;20.40;20.98;99057.47;4964776;28;20506;-72
2024/01/26 08:50:30;;;;;;;9.60;1.60;;;;;;;20.69;20.09;99065.81;4980654;28;20107;-74
2024/01/26 08:52:55;;;;;;;4.25;1.40;;;;;;;21.34;20.56;99059.22;4980796;28;20046;-74
2024/01/26 08:55:21;;;;;;;4.10;1.20;;;;;;;21.91;19.64;99051.75;4964293;28;20559;-73
2024/01/26 08:57:48;;;;;;;4.60;1.33;;;;;;;22.37;19.16;99051.56;4963277;28;20033;-74
2024/01/26 09:00:15;;;;;;;4.03;1.40;;;;;;;22.90;18.24;99054.03;4997158;28;20470;-74
2024/01/26 09:02:40;;;;;;;4.78;1.42;;;;;;;23.37;17.82;99057.13;4980830;28;20085;-75
2024/01/26 09:05:06;;;;;;;3.78;1.40;;;;;;;23.39;17.98;99049.75;4964236;28;20046;-73
2024/01/26 09:07:32;;;;;;;4.18;1.35;;;;;;;22.85;18.78;99053.75;4979768;28;20505;-75
2024/01/26 09:09:58;;;;;;;6.25;1.58;;;;;;;22.87;18.82;99068.53;4963439;28;20112;-74
2024/01/26 09:12:23;;;;;;;4.05;1.40;;;;;;;22.84;18.72;99065.41;4980218;28;20081;-74
2024/01/26 09:14:49;;;;;;;5.88;1.58;;;;;;;22.48;18.55;99068.88;4980540;28;20037;-74
2024/01/26 09:17:14;;;;;;;5.85;1.27;;;;;;;22.01;18.87;99071.72;4964071;28;20108;-74
2024/01/26 09:19:40;;;;;;;4.63;1.35;;;;;;;21.58;19.27;99071.47;4996323;28;20111;-74
2024/01/26 09:22:07;;;;;;;6.47;1.33;;;;;;;21.22;19.39;99071.25;4963549;28;20038;-74
2024/01/26 09:24:32;;;;;;;4.88;1.38;;;;;;;21.04;19.83;99074.22;4964307;28;20038;-77
2024/01/26 09:26:58;;;;;;;5.68;1.42;;;;;;;21.07;19.75;99057.94;4963803;28;20390;-75
2024/01/26 09:29:26;;;;;;;5.25;1.50;;;;;;;20.64;20.30;99063.66;4964331;28;20034;-73
2024/01/26 09:31:54;;;;;;;3.28;1.13;;;;;;;20.27;20.87;99062.47;4980724;28;20086;-75
2024/01/26 09:34:19;;;;;;;2.53;1.10;;;;;;;19.97;21.01;99056.97;4996528;28;20121;-74
2024/01/26 09:36:45;;;;;;;4.05;1.08;;;;;;;19.66;21.40;99056.81;4996307;28;20042;-74
2024/01/26 09:39:10;;;;;;;3.50;1.15;;;;;;;19.36;21.87;99060.97;4963882;28;20034;-74
2024/01/26 09:41:36;;;;;;;3.22;1.20;;;;;;;19.10;22.05;99065.44;4980258;28;20041;-75
2024/01/26 09:44:02;;;;;;;3.70;1.35;;;;;;;18.78;22.46;99063.53;4963570;28;20069;-74
2024/01/26 09:46:29;;;;;;;3.92;1.00;;;;;;;18.56;22.70;99063.13;4963835;28;20033;-74
2024/01/26 09:48:54;;;;;;;4.35;1.17;;;;;;;18.35;23.39;99066.19;4979623;28;20088;-74
2024/01/26 09:51:21;;;;;;;5.82;1.25;;;;;;;18.14;23.37;99066.59;4962981;28;20587;-74
2024/01/26 09:53:48;;;;;;;5.35;1.50;;;;;;;17.92;23.82;99069.75;4963619;28;20132;-74
2024/01/26 09:56:14;;;;;;;4.40;1.10;;;;;;;18.06;23.49;99063.94;4978542;28;20046;-74
2024/01/26 09:58:39;;;;;;;3.58;0.88;;;;;;;17.78;23.65;99053.50;4995513;28;20386;-74
2024/01/26 10:01:05;;;;;;;3.20;0.85;;;;;;;17.68;24.11;99055.41;4979497;28;20077;-75
2024/01/26 10:03:31;;;;;;;4.20;1.33;;;;;;;17.64;24.31;99061.97;4979543;28;20025;-73
2024/01/26 10:05:56;;;;;;;3.03;1.55;;;;;;;17.63;24.25;99066.44;4978613;28;20096;-75
2024/01/26 10:08:22;;;;;;;3.10;1.05;;;;;;;17.54;24.57;99062.91;4979126;28;20486;-74
2024/01/26 10:10:47;;;;;;;2.55;0.95;;;;;;;18.21;23.86;99059.69;4979482;28;20045;-75
2024/01/26 10:13:13;;;;;;;2.85;1.20;;;;;;;18.10;24.03;99059.97;4963007;28;20046;-75
2024/01/26 10:15:38;;;;;;;2.90;1.00;;;;;;;18.88;23.35;99058.97;4963331;28;20089;-74
2024/01/26 10:18:04;;;;;;;3.47;1.05;;;;;;;20.08;22.10;99057.56;4962757;28;20033;-74
2024/01/26 10:20:29;;;;;;;2.53;0.90;;;;;;;20.53;21.75;99040.16;4962722;28;20146;-74
2024/01/26 10:22:55;;;;;;;5.15;1.20;;;;;;;21.24;21.34;99053.34;4978620;28;20127;-74
2024/01/26 10:25:21;;;;;;;3.88;1.13;;;;;;;22.16;20.56;99053.13;4962806;28;20042;-74
2024/01/26 10:27:46;;;;;;;3.10;0.90;;;;;;;22.53;20.01;99058.50;4979281;28;20061;-73
2024/01/26 10:30:13;;;;;;;2.60;0.90;;;;;;;22.78;19.78;99053.66;4995115;28;20041;-74
2024/01/26 10:32:39;;;;;;;3.35;0.80;;;;;;;22.94;19.73;99045.47;4979296;28;20563;-73
2024/01/26 10:35:05;;;;;;;2.90;1.00;;;;;;;22.88;19.33;99051.53;4962459;28;20069;-73
2024/01/26 10:37:34;;;;;;;3.67;1.10;;;;;;;22.65;18.78;99035.72;4978995;28;20397;-74
2024/01/26 10:40:01;;;;;;;4.50;1.30;;;;;;;22.10;19.58;99035.25;4995377;28;20053;-73
2024/01/26 10:42:30;;;;;;;3.92;1.10;;;;;;;21.78;19.50;99023.16;4962727;28;20068;-73
2024/01/26 10:44:56;;;;;;;3.45;1.20;;;;;;;21.42;20.04;99034.41;4979633;28;20506;-73
2024/01/26 10:47:22;;;;;;;3.13;0.80;;;;;;;20.96;20.24;99032.63;4978522;28;20132;-75
2024/01/26 10:49:50;;;;;;;3.03;1.10;;;;;;;20.52;20.68;99038.50;4978306;28;20046;-74
2024/01/26 10:52:19;;;;;;;2.28;0.88;;;;;;;20.09;21.21;99027.44;4963095;28;20085;-72
2024/01/26 10:54:46;;;;;;;2.58;0.90;;;;;;;19.81;21.52;99033.13;4943859;28;20127;-74
2024/01/26 10:57:12;;;;;;;2.83;1.10;;;;;;;19.47;21.80;99019.09;4943611;28;20049;-76
2024/01/26 10:59:40;;;;;;;3.03;1.10;;;;;;;19.16;22.09;99026.88;4943112;28;20026;-75
2024/01/26 11:02:12;;;;;;;3.35;1.02;;;;;;;18.79;22.60;99017.59;4960231;28;20058;-75
2024/01/26 11:04:39;;;;;;;4.90;0.90;;;;;;;18.50;23.28;99033.84;4975320;28;20043;-74
2024/01/26 11:07:05;;;;;;;4.13;1.23;;;;;;;18.25;23.41;99033.78;4958939;28;20040;-74
2024/01/26 11:09:32;;;;;;;5.07;1.10;;;;;;;17.93;23.64;99034.44;4959310;28;20117;-75
2024/01/26 11:11:58;;;;;;;6.43;1.15;;;;;;;17.60;24.27;99034.22;4959581;28;20429;-74
2024/01/26 11:14:27;;;;;;;2.30;0.88;;;;;;;17.38;24.63;99033.75;4959239;28;20088;-74
2024/01/26 11:16:53;;;;;;;4.10;1.27;;;;;;;16.99;25.06;99037.53;4959136;28;20498;-74
2024/01/26 11:19:22;;;;;;;2.45;0.88;;;;;;;16.85;25.41;99034.59;4942704;28;20126;-74
2024/01/26 11:21:48;;;;;;;4.13;0.85;;;;;;;16.63;25.65;99037.50;4943552;28;20096;-74
2024/01/26 11:24:14;;;;;;;3.10;0.93;;;;;;;16.42;25.75;99043.03;4943500;28;20469;-74
2024/01/26 11:26:41;;;;;;;4.07;1.10;;;;;;;16.22;26.21;99031.75;4958883;28;20089;-74
2024/01/26 11:29:13;;;;;;;3.65;1.20;;;;;;;16.01;26.27;99037.25;4943317;28;20049;-73